createdAt,value
2023-02-25T00:01:10.377Z,4.30
2023-02-25T00:03:38.099Z,4.30
2023-02-25T00:06:06.692Z,4.40
2023-02-25T00:08:34.937Z,4.30
2023-02-25T00:11:07.545Z,4.30
2023-02-25T00:13:35.766Z,4.30
2023-02-25T00:16:05.024Z,4.30
2023-02-25T00:18:32.489Z,4.30
2023-02-25T00:21:00.591Z,4.30
2023-02-25T00:23:28.015Z,4.30
2023-02-25T00:26:02.235Z,4.30
2023-02-25T00:28:29.628Z,4.40
2023-02-25T00:30:56.950Z,4.30
2023-02-25T00:33:24.897Z,4.40
2023-02-25T00:35:52.075Z,4.40
2023-02-25T00:38:19.322Z,4.40
2023-02-25T00:40:47.331Z,4.40
2023-02-25T00:43:14.518Z,4.40
2023-02-25T00:45:41.660Z,4.40
2023-02-25T00:48:09.488Z,4.40
2023-02-25T00:50:39.820Z,4.30
2023-02-25T00:53:07.211Z,4.40
2023-02-25T00:55:34.549Z,4.40
2023-02-25T00:58:02.134Z,4.40
2023-02-25T01:00:30.621Z,4.40
2023-02-25T01:02:59.661Z,4.40
2023-02-25T01:05:26.757Z,4.30
2023-02-25T01:07:54.399Z,4.30
2023-02-25T01:10:21.542Z,4.40
2023-02-25T01:12:48.822Z,4.30
2023-02-25T01:15:16.372Z,4.30
2023-02-25T01:17:43.904Z,4.40
2023-02-25T01:20:13.062Z,4.40
2023-02-25T01:22:42.038Z,4.30
2023-02-25T01:25:14.374Z,4.40
2023-02-25T01:27:41.765Z,4.40
2023-02-25T01:30:10.003Z,4.30
2023-02-25T01:32:37.256Z,4.30
2023-02-25T01:35:05.617Z,4.30
2023-02-25T01:37:32.889Z,4.30
2023-02-25T01:40:00.142Z,4.30
2023-02-25T01:42:27.562Z,4.30
2023-02-25T01:45:13.590Z,4.30
2023-02-25T01:47:41.854Z,4.30
2023-02-25T01:50:10.633Z,4.30
2023-02-25T01:52:39.113Z,4.30
2023-02-25T01:55:11.809Z,4.30
2023-02-25T01:57:39.039Z,4.30
2023-02-25T02:00:18.326Z,4.40
2023-02-25T02:02:49.769Z,4.30
2023-02-25T02:05:17.649Z,4.30
2023-02-25T02:07:44.767Z,4.30
2023-02-25T02:10:12.752Z,4.30
2023-02-25T02:12:44.111Z,4.30
2023-02-25T02:15:14.104Z,4.30
2023-02-25T02:17:45.098Z,4.30
2023-02-25T02:20:15.540Z,4.30
2023-02-25T02:22:45.576Z,4.30
2023-02-25T02:25:31.896Z,4.30
2023-02-25T02:28:20.697Z,4.30
2023-02-25T02:31:06.491Z,4.30
2023-02-25T02:33:45.504Z,4.20
2023-02-25T02:36:21.529Z,4.30
2023-02-25T02:38:55.645Z,4.30
2023-02-25T02:41:42.109Z,4.30
2023-02-25T02:44:23.581Z,4.30
2023-02-25T02:47:01.715Z,4.30
2023-02-25T02:49:49.826Z,4.20
2023-02-25T02:52:43.243Z,4.20
2023-02-25T02:55:23.851Z,4.20
2023-02-25T02:58:26.518Z,4.20
2023-02-25T03:01:04.360Z,4.20
2023-02-25T03:03:36.757Z,4.10
2023-02-25T03:06:08.853Z,4.10
2023-02-25T03:08:44.884Z,4.10
2023-02-25T03:11:13.650Z,4.10
2023-02-25T03:13:41.914Z,4.10
2023-02-25T03:16:14.326Z,4.10
2023-02-25T03:18:58.132Z,4.10
2023-02-25T03:21:32.896Z,4.00
2023-02-25T03:24:02.672Z,4.00
2023-02-25T03:26:32.805Z,4.00
2023-02-25T03:29:02.897Z,4.00
2023-02-25T03:31:46.735Z,4.00
2023-02-25T03:34:21.617Z,4.00
2023-02-25T03:37:06.540Z,4.00
2023-02-25T03:39:40.649Z,4.00
2023-02-25T03:42:12.541Z,4.00
2023-02-25T03:44:53.792Z,4.00
2023-02-25T03:47:24.423Z,4.00
2023-02-25T03:50:03.041Z,4.00
2023-02-25T03:52:31.190Z,4.10
2023-02-25T03:55:03.484Z,4.10
2023-02-25T03:57:40.362Z,4.10
2023-02-25T04:00:19.991Z,4.10
2023-02-25T04:02:49.069Z,4.10
2023-02-25T04:05:18.717Z,4.00
2023-02-25T04:07:46.448Z,4.00
2023-02-25T04:10:15.961Z,4.00
2023-02-25T04:12:43.164Z,4.00
2023-02-25T04:15:11.430Z,4.00
2023-02-25T04:17:38.571Z,4.00
2023-02-25T04:20:06.912Z,4.00
2023-02-25T04:22:34.695Z,4.00
2023-02-25T04:25:02.076Z,4.00
2023-02-25T04:27:29.304Z,3.90
2023-02-25T04:29:56.521Z,3.90
2023-02-25T04:32:23.773Z,3.90
2023-02-25T04:34:51.846Z,3.90
2023-02-25T04:37:18.992Z,3.90
2023-02-25T04:39:46.351Z,3.80
2023-02-25T04:42:13.481Z,3.80
2023-02-25T04:44:40.751Z,3.80
2023-02-25T04:47:08.630Z,3.80
2023-02-25T04:49:44.803Z,3.80
2023-02-25T04:52:14.317Z,3.80
2023-02-25T04:54:41.594Z,3.80
2023-02-25T04:57:09.534Z,3.70
2023-02-25T04:59:36.653Z,3.70
2023-02-25T05:02:04.489Z,3.80
2023-02-25T05:04:31.645Z,3.70
2023-02-25T05:06:59.027Z,3.70
2023-02-25T05:09:26.511Z,3.70
2023-02-25T05:11:53.557Z,3.70
2023-02-25T05:14:20.671Z,3.60
2023-02-25T05:16:47.777Z,3.60
2023-02-25T05:19:22.159Z,3.60
2023-02-25T05:21:50.400Z,3.60
2023-02-25T05:24:18.877Z,3.50
2023-02-25T05:26:46.293Z,3.60
2023-02-25T05:29:13.315Z,3.60
2023-02-25T05:31:41.195Z,3.60
2023-02-25T05:34:08.431Z,3.70
2023-02-25T05:36:35.995Z,3.70
2023-02-25T05:39:03.745Z,3.70
2023-02-25T05:41:31.114Z,3.80
2023-02-25T05:43:58.405Z,3.80
2023-02-25T05:46:26.997Z,3.90
2023-02-25T05:48:54.999Z,3.90
2023-02-25T05:51:23.750Z,3.90
2023-02-25T05:53:52.751Z,3.90
2023-02-25T05:56:23.609Z,3.90
2023-02-25T05:58:51.808Z,3.90
2023-02-25T06:01:23.197Z,3.90
2023-02-25T06:03:58.682Z,3.90
2023-02-25T06:06:28.651Z,3.80
2023-02-25T06:08:56.483Z,3.80
2023-02-25T06:11:26.625Z,3.80
2023-02-25T06:13:55.669Z,3.80
2023-02-25T06:16:26.412Z,3.90
2023-02-25T06:18:53.720Z,3.90
2023-02-25T06:21:21.155Z,3.90
2023-02-25T06:23:50.576Z,3.90
2023-02-25T06:26:18.521Z,3.90
2023-02-25T06:28:45.893Z,4.00
2023-02-25T06:31:16.853Z,3.90
2023-02-25T06:33:46.256Z,3.80
2023-02-25T06:36:13.959Z,3.80
2023-02-25T06:38:41.304Z,3.50
2023-02-25T06:41:14.634Z,3.40
2023-02-25T06:43:42.120Z,3.30
2023-02-25T06:46:12.177Z,3.30
2023-02-25T06:48:39.746Z,3.30
2023-02-25T06:51:09.734Z,3.30
2023-02-25T06:53:38.399Z,3.30
2023-02-25T06:56:07.022Z,3.40
2023-02-25T06:58:34.750Z,3.40
2023-02-25T07:01:05.872Z,3.40
2023-02-25T07:03:33.098Z,3.40
2023-02-25T07:06:00.501Z,3.50
2023-02-25T07:08:27.710Z,3.50
2023-02-25T07:10:55.048Z,3.50
2023-02-25T07:13:22.345Z,3.60
2023-02-25T07:15:50.442Z,3.60
2023-02-25T07:18:17.656Z,3.60
2023-02-25T07:20:44.964Z,3.70
2023-02-25T07:23:12.031Z,3.60
2023-02-25T07:25:39.512Z,3.70
2023-02-25T07:28:06.704Z,3.70
2023-02-25T07:30:34.219Z,3.80
2023-02-25T07:33:02.620Z,3.80
2023-02-25T07:35:30.004Z,3.90
2023-02-25T07:37:57.222Z,3.90
2023-02-25T07:40:24.410Z,3.90
2023-02-25T07:42:51.889Z,4.00
2023-02-25T07:45:22.011Z,4.00
2023-02-25T07:47:52.756Z,4.00
2023-02-25T07:50:20.380Z,4.10
2023-02-25T07:52:47.856Z,4.10
2023-02-25T07:55:15.031Z,4.10
2023-02-25T07:57:42.327Z,4.10
2023-02-25T08:00:10.472Z,4.10
2023-02-25T08:02:40.642Z,4.10
2023-02-25T08:05:08.413Z,4.10
2023-02-25T08:07:35.642Z,4.10
2023-02-25T08:10:03.370Z,4.00
2023-02-25T08:12:30.653Z,3.90
2023-02-25T08:15:00.375Z,3.90
2023-02-25T08:17:31.534Z,3.80
2023-02-25T08:19:58.752Z,3.80
2023-02-25T08:22:26.386Z,3.80
2023-02-25T08:24:53.597Z,3.70
2023-02-25T08:27:20.906Z,3.70
2023-02-25T08:29:48.949Z,3.70
2023-02-25T08:32:17.142Z,3.80
2023-02-25T08:34:46.178Z,3.90
2023-02-25T08:37:14.551Z,3.90
2023-02-25T08:39:41.978Z,3.90
2023-02-25T08:42:12.319Z,3.90
2023-02-25T08:44:40.067Z,4.00
2023-02-25T08:47:07.347Z,4.00
2023-02-25T08:49:35.571Z,4.00
2023-02-25T08:52:02.969Z,4.10
2023-02-25T08:54:30.224Z,4.10
2023-02-25T08:56:57.528Z,4.10
2023-02-25T08:59:24.710Z,4.10
2023-02-25T09:01:52.514Z,4.20
2023-02-25T09:04:23.128Z,4.20
2023-02-25T09:06:53.096Z,4.20
2023-02-25T09:09:21.657Z,4.20
2023-02-25T09:11:49.277Z,4.20
2023-02-25T09:14:17.593Z,4.20
2023-02-25T09:16:45.009Z,4.30
2023-02-25T09:19:15.902Z,4.30
2023-02-25T09:21:43.452Z,4.30
2023-02-25T09:24:11.192Z,4.30
2023-02-25T09:26:38.466Z,4.30
2023-02-25T09:29:07.592Z,4.40
2023-02-25T09:31:37.427Z,4.40
2023-02-25T09:34:07.907Z,4.40
2023-02-25T09:36:45.081Z,4.40
2023-02-25T09:39:13.284Z,4.40
2023-02-25T09:41:44.035Z,4.40
2023-02-25T09:44:21.255Z,4.40
2023-02-25T09:46:52.472Z,4.40
2023-02-25T09:49:50.330Z,4.40
2023-02-25T09:52:29.444Z,4.30
2023-02-25T09:55:17.531Z,4.30
2023-02-25T09:57:51.807Z,4.30
2023-02-25T10:00:21.485Z,4.30
2023-02-25T10:03:06.153Z,4.40
2023-02-25T10:05:56.814Z,4.40
2023-02-25T10:08:44.370Z,4.40
2023-02-25T10:11:19.290Z,4.50
2023-02-25T10:13:59.936Z,4.50
2023-02-25T10:17:03.322Z,4.50
2023-02-25T10:19:52.176Z,4.50
2023-02-25T10:22:34.612Z,4.50
2023-02-25T10:25:15.869Z,4.60
2023-02-25T10:28:01.152Z,4.60
2023-02-25T10:30:52.773Z,4.70
2023-02-25T10:33:26.657Z,4.80
2023-02-25T10:36:10.507Z,4.80
2023-02-25T10:38:45.389Z,4.80
2023-02-25T10:41:13.297Z,4.80
2023-02-25T10:43:40.705Z,4.80
2023-02-25T10:46:27.347Z,4.90
2023-02-25T10:48:59.577Z,4.90
2023-02-25T10:51:29.958Z,4.90
2023-02-25T10:53:57.418Z,5.00
2023-02-25T10:56:27.115Z,4.90
2023-02-25T10:59:26.506Z,5.00
2023-02-25T11:01:55.062Z,5.10
2023-02-25T11:04:36.766Z,5.00
2023-02-25T11:07:24.107Z,4.90
2023-02-25T11:10:13.189Z,4.80
2023-02-25T11:12:47.814Z,4.80
2023-02-25T11:15:44.772Z,4.80
2023-02-25T11:18:31.921Z,4.90
2023-02-25T11:21:13.176Z,4.90
2023-02-25T11:23:47.107Z,4.90
2023-02-25T11:26:50.270Z,5.00
2023-02-25T11:29:23.147Z,5.10
2023-02-25T11:32:04.731Z,5.20
2023-02-25T11:34:32.685Z,5.20
2023-02-25T11:37:23.933Z,5.20
2023-02-25T11:39:56.290Z,5.20
2023-02-25T11:42:26.120Z,5.30
2023-02-25T11:45:04.020Z,5.30
2023-02-25T11:47:34.604Z,5.40
2023-02-25T11:50:16.136Z,5.40
2023-02-25T11:53:02.183Z,5.50
2023-02-25T11:56:10.055Z,5.50
2023-02-25T11:58:47.944Z,5.60
2023-02-25T12:01:37.145Z,5.70
2023-02-25T12:04:37.209Z,5.70
2023-02-25T12:07:05.216Z,5.70
2023-02-25T12:09:57.366Z,5.60
2023-02-25T12:13:03.123Z,5.60
2023-02-25T12:15:52.247Z,5.60
2023-02-25T12:18:29.568Z,5.60
2023-02-25T12:21:06.286Z,5.60
2023-02-25T12:23:33.395Z,5.60
2023-02-25T12:26:24.179Z,5.70
2023-02-25T12:29:15.595Z,5.60
2023-02-25T12:32:08.756Z,5.70
2023-02-25T12:34:47.997Z,5.70
2023-02-25T12:37:36.791Z,5.80
2023-02-25T12:40:10.876Z,5.80
2023-02-25T12:43:02.853Z,5.80
2023-02-25T12:45:48.593Z,5.80
2023-02-25T12:48:30.898Z,5.80
2023-02-25T12:51:19.463Z,5.80
2023-02-25T12:54:11.283Z,5.80
2023-02-25T12:56:56.929Z,5.80
2023-02-25T12:59:46.319Z,5.70
2023-02-25T13:02:16.361Z,5.70
2023-02-25T13:04:58.903Z,5.60
2023-02-25T13:07:29.076Z,5.60
2023-02-25T13:10:08.526Z,5.60
2023-02-25T13:13:25.878Z,5.60
2023-02-25T13:16:04.274Z,5.60
2023-02-25T13:18:43.268Z,5.60
2023-02-25T13:21:54.180Z,5.50
2023-02-25T13:24:37.443Z,5.60
2023-02-25T13:27:35.866Z,5.60
2023-02-25T13:30:29.606Z,5.60
2023-02-25T13:33:02.976Z,5.60
2023-02-25T13:36:02.661Z,5.60
2023-02-25T13:38:57.814Z,5.60
2023-02-25T13:41:53.439Z,5.60
2023-02-25T13:44:33.644Z,5.60
2023-02-25T13:47:21.721Z,5.60
2023-02-25T13:50:18.532Z,5.60
2023-02-25T13:53:03.100Z,5.60
2023-02-25T13:55:58.393Z,5.50
2023-02-25T13:58:43.673Z,5.50
2023-02-25T14:01:20.067Z,5.60
2023-02-25T14:03:47.089Z,5.60
2023-02-25T14:06:23.061Z,5.50
2023-02-25T14:09:12.564Z,5.50
2023-02-25T14:12:00.476Z,5.50
2023-02-25T14:14:58.730Z,5.50
2023-02-25T14:17:45.231Z,5.50
2023-02-25T14:20:36.746Z,5.40
2023-02-25T14:23:38.986Z,5.40
2023-02-25T14:26:28.034Z,5.40
2023-02-25T14:29:07.627Z,5.40
2023-02-25T14:32:19.230Z,5.50
2023-02-25T14:35:23.371Z,5.50
2023-02-25T14:38:05.904Z,5.50
2023-02-25T14:41:10.853Z,5.50
2023-02-25T14:43:38.356Z,5.50
2023-02-25T14:46:20.753Z,5.50
2023-02-25T14:49:15.911Z,5.50
2023-02-25T14:51:49.291Z,5.60
2023-02-25T14:54:50.697Z,5.60
2023-02-25T14:57:41.488Z,5.60
2023-02-25T15:00:49.124Z,5.50
2023-02-25T15:03:43.315Z,5.50
2023-02-25T15:06:18.012Z,5.50
2023-02-25T15:09:15.936Z,5.50
2023-02-25T15:12:14.072Z,5.50
2023-02-25T15:15:14.393Z,5.50
2023-02-25T15:18:19.203Z,5.50
2023-02-25T15:20:46.983Z,5.50
2023-02-25T15:23:15.326Z,5.50
2023-02-25T15:25:50.774Z,5.50
2023-02-25T15:28:34.596Z,5.60
2023-02-25T15:31:01.935Z,5.60
2023-02-25T15:33:45.694Z,5.70
2023-02-25T15:36:16.129Z,5.70
2023-02-25T15:38:50.581Z,5.70
2023-02-25T15:41:30.020Z,5.60
2023-02-25T15:43:59.147Z,5.60
2023-02-25T15:46:36.040Z,5.60
2023-02-25T15:49:21.794Z,5.60
2023-02-25T15:51:53.106Z,5.60
2023-02-25T15:55:23.324Z,5.60
2023-02-25T15:57:36.822Z,5.50
2023-02-25T16:00:25.134Z,5.50
2023-02-25T16:02:58.395Z,5.50
2023-02-25T16:05:32.644Z,5.50
2023-02-25T16:08:24.674Z,5.50
2023-02-25T16:10:55.263Z,5.50
2023-02-25T16:13:32.560Z,5.50
2023-02-25T16:16:02.788Z,5.50
2023-02-25T16:18:42.863Z,5.40
2023-02-25T16:21:37.408Z,5.40
2023-02-25T16:24:11.518Z,5.30
2023-02-25T16:27:16.425Z,5.40
2023-02-25T16:29:56.044Z,5.30
2023-02-25T16:32:35.221Z,5.30
2023-02-25T16:35:20.523Z,5.30
2023-02-25T16:38:09.774Z,5.30
2023-02-25T16:40:40.147Z,5.30
2023-02-25T16:43:14.463Z,5.30
2023-02-25T16:45:58.297Z,5.20
2023-02-25T16:48:45.865Z,5.20
2023-02-25T16:51:23.251Z,5.20
2023-02-25T16:53:55.690Z,5.20
2023-02-25T16:56:31.847Z,5.20
2023-02-25T16:59:00.479Z,5.30
2023-02-25T17:01:30.027Z,5.30
2023-02-25T17:04:46.421Z,5.30
2023-02-25T17:07:18.100Z,5.30
2023-02-25T17:09:54.678Z,5.30
2023-02-25T17:12:41.487Z,5.20
2023-02-25T17:15:16.435Z,5.20
2023-02-25T17:17:46.581Z,5.20
2023-02-25T17:20:24.730Z,5.20
2023-02-25T17:22:53.972Z,5.20
2023-02-25T17:25:24.679Z,5.10
2023-02-25T17:27:51.854Z,5.10
2023-02-25T17:30:46.530Z,5.10
2023-02-25T17:33:26.580Z,5.10
2023-02-25T17:36:09.299Z,5.10
2023-02-25T17:38:39.061Z,5.00
2023-02-25T17:41:06.730Z,5.10
2023-02-25T17:43:36.950Z,5.10
2023-02-25T17:46:27.698Z,5.10
2023-02-25T17:49:03.032Z,5.10
2023-02-25T17:51:38.963Z,5.00
2023-02-25T17:54:09.752Z,5.00
2023-02-25T17:56:38.100Z,5.00
2023-02-25T17:59:14.497Z,5.00
2023-02-25T18:01:48.693Z,5.00
2023-02-25T18:04:42.652Z,4.90
2023-02-25T18:07:32.805Z,4.90
2023-02-25T18:10:01.542Z,4.90
2023-02-25T18:12:36.156Z,4.90
2023-02-25T18:15:16.737Z,4.90
2023-02-25T18:17:49.966Z,4.80
2023-02-25T18:20:32.645Z,4.80
2023-02-25T18:23:13.772Z,4.80
2023-02-25T18:25:47.337Z,4.80
2023-02-25T18:28:15.959Z,4.70
2023-02-25T18:30:43.879Z,4.70
2023-02-25T18:33:11.723Z,4.70
2023-02-25T18:35:42.019Z,4.70
2023-02-25T18:38:21.190Z,4.70
2023-02-25T18:40:49.873Z,4.70
2023-02-25T18:43:22.631Z,4.70
2023-02-25T18:45:49.810Z,4.70
2023-02-25T18:48:17.170Z,4.60
2023-02-25T18:50:44.833Z,4.60
2023-02-25T18:53:16.321Z,4.60
2023-02-25T18:55:43.710Z,4.60
2023-02-25T18:58:14.303Z,4.60
2023-02-25T19:00:42.509Z,4.50
2023-02-25T19:03:15.502Z,4.50
2023-02-25T19:05:43.847Z,4.50
2023-02-25T19:08:16.706Z,4.40
2023-02-25T19:10:45.619Z,4.40
2023-02-25T19:13:29.317Z,4.30
2023-02-25T19:15:56.649Z,4.30
2023-02-25T19:18:24.017Z,4.30
2023-02-25T19:20:51.189Z,4.20
2023-02-25T19:23:19.024Z,4.20
2023-02-25T19:25:48.589Z,4.20
2023-02-25T19:28:17.190Z,4.10
2023-02-25T19:30:44.428Z,4.10
2023-02-25T19:33:13.298Z,4.10
2023-02-25T19:35:42.751Z,4.10
2023-02-25T19:38:18.430Z,4.10
2023-02-25T19:40:46.998Z,4.10
2023-02-25T19:43:14.436Z,4.00
2023-02-25T19:45:42.106Z,4.00
2023-02-25T19:48:09.790Z,4.00
2023-02-25T19:50:38.122Z,4.00
2023-02-25T19:53:05.844Z,4.00
2023-02-25T19:55:33.499Z,4.00
2023-02-25T19:58:01.050Z,4.10
2023-02-25T20:00:28.590Z,4.10
2023-02-25T20:02:56.417Z,4.10
2023-02-25T20:05:24.306Z,4.10
2023-02-25T20:07:52.254Z,4.10
2023-02-25T20:10:20.240Z,4.10
2023-02-25T20:12:52.853Z,4.10
2023-02-25T20:15:20.039Z,4.10
2023-02-25T20:17:47.677Z,4.10
2023-02-25T20:20:16.274Z,4.10
2023-02-25T20:22:43.733Z,4.10
2023-02-25T20:25:13.484Z,4.10
2023-02-25T20:27:43.690Z,4.10
2023-02-25T20:30:16.909Z,4.10
2023-02-25T20:32:45.262Z,4.10
2023-02-25T20:35:20.663Z,4.10
2023-02-25T20:38:11.217Z,4.10
2023-02-25T20:40:38.459Z,4.10
2023-02-25T20:43:05.925Z,4.10
2023-02-25T20:45:34.106Z,4.20
2023-02-25T20:48:01.786Z,4.20
2023-02-25T20:50:29.860Z,4.20
2023-02-25T20:52:57.166Z,4.20
2023-02-25T20:55:24.383Z,4.20
2023-02-25T20:57:54.511Z,4.30
2023-02-25T21:00:22.566Z,4.30
2023-02-25T21:02:49.888Z,4.30
2023-02-25T21:05:17.276Z,4.30
2023-02-25T21:07:44.475Z,4.30
2023-02-25T21:10:12.037Z,4.30
2023-02-25T21:12:39.355Z,4.30
2023-02-25T21:15:07.086Z,4.30
2023-02-25T21:17:34.337Z,4.30
2023-02-25T21:20:01.720Z,4.30
2023-02-25T21:22:29.368Z,4.30
2023-02-25T21:24:57.740Z,4.30
2023-02-25T21:27:26.040Z,4.30
2023-02-25T21:29:54.069Z,4.30
2023-02-25T21:32:21.423Z,4.30
2023-02-25T21:34:48.570Z,4.30
2023-02-25T21:37:16.646Z,4.30
2023-02-25T21:39:44.052Z,4.30
2023-02-25T21:42:11.192Z,4.30
2023-02-25T21:44:38.274Z,4.30
2023-02-25T21:47:07.879Z,4.40
2023-02-25T21:49:35.104Z,4.40
2023-02-25T21:52:02.182Z,4.40
2023-02-25T21:54:30.558Z,4.40
2023-02-25T21:56:58.278Z,4.40
2023-02-25T21:59:26.215Z,4.40
2023-02-25T22:01:54.015Z,4.40
2023-02-25T22:04:21.240Z,4.40
2023-02-25T22:06:49.657Z,4.40
2023-02-25T22:09:18.235Z,4.40
2023-02-25T22:11:45.554Z,4.40
2023-02-25T22:14:16.841Z,4.40
2023-02-25T22:16:44.023Z,4.40
2023-02-25T22:19:11.265Z,4.40
2023-02-25T22:21:39.501Z,4.40
2023-02-25T22:24:07.072Z,4.40
2023-02-25T22:26:36.273Z,4.40
2023-02-25T22:29:09.143Z,4.40
2023-02-25T22:31:37.587Z,4.40
2023-02-25T22:34:06.838Z,4.50
2023-02-25T22:36:34.544Z,4.40
2023-02-25T22:39:05.920Z,4.50
2023-02-25T22:41:37.202Z,4.50
2023-02-25T22:44:10.330Z,4.50
2023-02-25T22:46:42.178Z,4.50
2023-02-25T22:49:11.289Z,4.50
2023-02-25T22:51:43.252Z,4.50
2023-02-25T22:54:14.827Z,4.50
2023-02-25T22:56:43.349Z,4.50
2023-02-25T22:59:11.286Z,4.50
2023-02-25T23:01:39.757Z,4.50
2023-02-25T23:04:08.365Z,4.60
2023-02-25T23:06:44.900Z,4.60
2023-02-25T23:09:22.041Z,4.60
2023-02-25T23:11:52.294Z,4.60
2023-02-25T23:14:19.408Z,4.60
2023-02-25T23:16:47.207Z,4.60
2023-02-25T23:19:17.236Z,4.60
2023-02-25T23:21:45.173Z,4.60
2023-02-25T23:24:16.672Z,4.60
2023-02-25T23:26:47.703Z,4.60
2023-02-25T23:29:15.186Z,4.60
2023-02-25T23:31:46.115Z,4.60
2023-02-25T23:34:18.028Z,4.60
2023-02-25T23:36:45.918Z,4.50
2023-02-25T23:39:14.798Z,4.50
2023-02-25T23:41:42.728Z,4.50
2023-02-25T23:44:11.762Z,4.50
2023-02-25T23:46:39.717Z,4.50
2023-02-25T23:49:07.598Z,4.50
2023-02-25T23:51:36.999Z,4.50
2023-02-25T23:54:06.589Z,4.50
2023-02-25T23:56:35.437Z,4.50
2023-02-25T23:59:02.957Z,4.40
